Time;durP1;ratioP1;P1;durP2;ratioP2;P2;SDS_P1;SDS_P2;PMS_P1;PMS_P2;Temp;Humidity;BMP_temperature;BMP_pressure;BME280_temperature;BME280_humidity;BME280_pressure;Samples;Min_cycle;Max_cycle;Signal;HPM_P1;HPM_P2
2023/03/02 00:01:55;;;;;;;11.15;4.18;;;;;;;15.92;42.98;101271.44;5090440;28;20044;-53
2023/03/02 00:04:37;;;;;;;5.72;3.97;;;;;;;15.92;43.25;101266.97;5089809;28;20044;-48
2023/03/02 00:07:08;;;;;;;8.55;3.78;;;;;;;15.93;43.47;101273.16;5089691;28;20462;-50
2023/03/02 00:09:36;;;;;;;9.02;4.63;;;;;;;15.94;43.52;101272.19;5089133;28;20071;-50
2023/03/02 00:12:05;;;;;;;4.85;3.70;;;;;;;15.93;43.49;101268.69;5090224;28;20051;-50
2023/03/02 00:14:33;;;;;;;5.25;4.07;;;;;;;15.94;43.66;101266.88;5090372;28;20410;-49
2023/03/02 00:17:01;;;;;;;6.35;3.70;;;;;;;15.95;43.79;101265.91;5089950;28;20048;-49
2023/03/02 00:19:29;;;;;;;7.55;4.03;;;;;;;15.96;44.26;101263.16;5089399;28;20047;-49
2023/03/02 00:21:56;;;;;;;8.55;4.13;;;;;;;15.98;44.23;101263.88;5089441;28;20055;-48
2023/03/02 00:24:23;;;;;;;5.82;4.10;;;;;;;16.01;44.39;101265.53;5089336;28;20036;-51
2023/03/02 00:26:51;;;;;;;6.47;4.50;;;;;;;16.02;43.96;101268.06;5089535;28;20040;-49
2023/03/02 00:29:18;;;;;;;7.15;4.20;;;;;;;16.04;43.85;101259.94;5089439;28;20387;-49
2023/03/02 00:31:45;;;;;;;6.53;4.38;;;;;;;16.06;43.82;101258.06;5089344;28;20044;-49
2023/03/02 00:34:15;;;;;;;5.72;3.30;;;;;;;16.08;43.87;101261.47;5082009;28;20032;-48
2023/03/02 00:36:43;;;;;;;6.63;4.10;;;;;;;16.08;43.81;101258.78;5075976;28;20040;-51
2023/03/02 00:39:10;;;;;;;6.63;4.55;;;;;;;16.10;43.83;101253.38;5076538;28;20048;-50
2023/03/02 00:41:38;;;;;;;5.15;3.78;;;;;;;16.11;43.75;101258.59;5075032;28;20379;-47
2023/03/02 00:44:05;;;;;;;5.50;3.47;;;;;;;16.13;43.29;101258.53;5075624;28;20041;-49
2023/03/02 00:46:32;;;;;;;4.75;3.85;;;;;;;16.14;43.56;101255.75;5075722;28;20052;-51
2023/03/02 00:49:00;;;;;;;6.82;3.70;;;;;;;16.14;43.77;101258.41;5075649;28;20081;-48
2023/03/02 00:51:27;;;;;;;7.85;4.03;;;;;;;16.14;43.37;101250.41;5076175;28;20118;-51
2023/03/02 00:53:55;;;;;;;6.20;3.90;;;;;;;16.17;43.41;101252.88;5075969;28;20478;-49
2023/03/02 00:56:22;;;;;;;5.95;3.75;;;;;;;16.18;43.54;101248.38;5074835;28;20060;-53
2023/03/02 00:58:51;;;;;;;5.43;3.60;;;;;;;16.19;43.37;101250.09;5075766;28;20056;-50
2023/03/02 01:01:19;;;;;;;7.63;3.75;;;;;;;16.19;43.35;101248.28;5074894;28;20056;-49
2023/03/02 01:03:50;;;;;;;4.75;3.42;;;;;;;16.20;43.44;101241.97;5074566;28;20048;-53
2023/03/02 01:06:20;;;;;;;4.15;3.50;;;;;;;16.21;43.39;101243.69;5074883;28;20048;-52
2023/03/02 01:08:48;;;;;;;6.35;3.40;;;;;;;16.22;43.33;101232.03;5074519;28;20048;-50
2023/03/02 01:11:19;;;;;;;7.53;3.60;;;;;;;16.25;43.51;101239.00;5075308;28;20063;-52
2023/03/02 01:13:47;;;;;;;3.92;3.35;;;;;;;16.25;43.31;101236.34;5075767;28;20036;-48
2023/03/02 01:16:15;;;;;;;4.82;3.53;;;;;;;16.25;43.49;101237.19;5075164;28;20052;-49
2023/03/02 01:18:42;;;;;;;6.00;4.10;;;;;;;16.27;43.30;101237.94;5074557;28;20056;-52
2023/03/02 01:21:12;;;;;;;5.45;3.58;;;;;;;16.29;43.49;101233.34;5075536;28;20044;-53
2023/03/02 01:23:40;;;;;;;3.92;3.22;;;;;;;16.29;43.40;101236.03;5075363;28;20056;-51
2023/03/02 01:26:08;;;;;;;4.82;3.42;;;;;;;16.30;43.25;101235.06;5075456;28;20470;-53
2023/03/02 01:28:35;;;;;;;3.60;2.90;;;;;;;16.31;43.29;101236.78;5075512;28;20048;-50
2023/03/02 01:31:03;;;;;;;4.88;3.60;;;;;;;16.32;43.38;101224.25;5074017;28;20059;-51
2023/03/02 01:33:31;;;;;;;3.83;2.58;;;;;;;16.34;43.23;101232.19;5075369;28;20058;-51
2023/03/02 01:35:58;;;;;;;4.00;3.10;;;;;;;16.35;43.31;101225.88;5073937;28;20048;-53
2023/03/02 01:38:26;;;;;;;7.28;3.28;;;;;;;16.36;43.30;101219.56;5075077;28;20049;-52
2023/03/02 01:40:54;;;;;;;4.75;3.33;;;;;;;16.38;43.38;101228.34;5075162;28;20056;-53
2023/03/02 01:43:21;;;;;;;5.22;2.90;;;;;;;16.37;43.39;101219.50;5073850;28;20049;-50
2023/03/02 01:45:55;;;;;;;4.53;3.00;;;;;;;16.39;43.13;101228.25;5072451;28;20059;-53
2023/03/02 01:48:55;;;;;;;4.55;3.38;;;;;;;16.41;43.39;101217.47;5072932;28;20045;-51
2023/03/02 01:51:39;;;;;;;5.57;3.35;;;;;;;16.41;43.27;101221.00;5074468;28;20064;-50
2023/03/02 01:54:15;;;;;;;4.80;2.92;;;;;;;16.42;43.29;101212.00;5074594;28;20064;-48
2023/03/02 01:56:45;;;;;;;4.10;2.95;;;;;;;16.43;43.19;101212.88;5074804;28;20048;-49
2023/03/02 01:59:17;;;;;;;4.75;2.85;;;;;;;16.44;43.21;101204.72;5073412;28;20052;-49
2023/03/02 02:01:50;;;;;;;4.88;2.95;;;;;;;16.46;43.43;101208.16;5074048;28;20502;-50
2023/03/02 02:04:19;;;;;;;5.63;3.47;;;;;;;16.47;43.11;101214.38;5074315;28;20059;-53
2023/03/02 02:06:53;;;;;;;4.15;3.13;;;;;;;16.49;43.16;101209.78;5073100;28;20064;-49
2023/03/02 02:09:24;;;;;;;3.63;2.92;;;;;;;16.48;43.12;101208.06;5073457;28;20052;-50
2023/03/02 02:11:51;;;;;;;4.80;3.22;;;;;;;16.49;43.08;101210.66;5073611;28;20059;-49
2023/03/02 02:14:19;;;;;;;7.28;3.22;;;;;;;16.49;43.37;101199.97;5074540;28;20510;-48
2023/03/02 02:16:47;;;;;;;6.38;3.05;;;;;;;16.51;43.35;101205.19;5074482;28;20395;-50
2023/03/02 02:19:23;;;;;;;4.30;3.50;;;;;;;16.52;43.40;101207.75;5073390;28;20048;-49
2023/03/02 02:21:51;;;;;;;6.53;3.20;;;;;;;16.54;43.43;101204.97;5073101;28;20082;-48
2023/03/02 02:24:46;;;;;;;4.72;3.05;;;;;;;16.54;43.39;101204.97;5074134;28;20049;-49
2023/03/02 02:27:14;;;;;;;3.97;2.92;;;;;;;16.55;43.27;101202.19;5074071;28;20048;-52
2023/03/02 02:29:46;;;;;;;4.25;2.95;;;;;;;16.55;43.47;101202.19;5074165;28;20479;-50
2023/03/02 02:32:25;;;;;;;5.43;2.85;;;;;;;16.57;43.42;101204.78;5056564;28;20525;-52
2023/03/02 02:34:59;;;;;;;5.32;3.08;;;;;;;16.59;43.29;101200.16;5073215;28;20067;-50
2023/03/02 02:37:37;;;;;;;5.53;3.17;;;;;;;16.59;43.27;101196.66;5072877;28;20079;-48
2023/03/02 02:40:10;;;;;;;5.65;3.03;;;;;;;16.60;43.46;101199.19;5074154;28;20060;-51
2023/03/02 02:42:42;;;;;;;5.57;3.17;;;;;;;16.61;43.25;101194.72;5073452;28;20052;-53
2023/03/02 02:45:26;;;;;;;5.30;3.17;;;;;;;16.62;43.28;101207.13;5072619;28;20045;-54
2023/03/02 02:47:55;;;;;;;5.18;2.63;;;;;;;16.64;43.46;101205.19;5071982;28;20068;-53
2023/03/02 02:50:32;;;;;;;4.13;3.00;;;;;;;16.63;43.30;101201.66;5073915;28;20063;-52
2023/03/02 02:53:10;;;;;;;4.15;3.38;;;;;;;16.64;43.54;101203.38;5073744;28;20498;-54
2023/03/02 02:55:40;;;;;;;3.47;2.80;;;;;;;16.65;43.55;101197.09;5072210;28;20418;-49
2023/03/02 02:58:36;;;;;;;4.28;2.97;;;;;;;16.66;43.31;101195.28;5071773;28;20061;-50
2023/03/02 03:01:04;;;;;;;6.05;3.22;;;;;;;16.66;43.33;101195.28;5071703;28;20414;-52
2023/03/02 03:03:36;;;;;;;3.58;3.10;;;;;;;16.67;43.36;101192.47;5073829;28;20370;-51
2023/03/02 03:06:16;;;;;;;4.10;3.03;;;;;;;16.68;43.16;101183.50;5073281;28;20052;-51
2023/03/02 03:08:55;;;;;;;4.47;2.90;;;;;;;16.70;43.42;101194.09;5072648;28;20064;-52
2023/03/02 03:11:37;;;;;;;4.45;3.00;;;;;;;16.71;43.49;101185.09;5072366;28;20063;-51
2023/03/02 03:14:04;;;;;;;4.65;3.45;;;;;;;16.71;43.36;101185.09;5073279;28;20045;-53
2023/03/02 03:16:33;;;;;;;3.90;2.78;;;;;;;16.72;43.30;101184.13;5072313;28;20060;-55
2023/03/02 03:19:07;;;;;;;3.83;2.75;;;;;;;16.72;43.47;101182.31;5072342;28;20052;-55
2023/03/02 03:21:35;;;;;;;3.60;2.80;;;;;;;16.74;43.50;101188.47;5071767;28;20063;-54
2023/03/02 03:24:02;;;;;;;4.15;3.10;;;;;;;16.73;43.18;101184.09;5073034;28;20044;-50
2023/03/02 03:26:30;;;;;;;5.22;2.70;;;;;;;16.74;43.31;101180.44;5071597;28;20057;-50
2023/03/02 03:28:58;;;;;;;5.47;2.80;;;;;;;16.75;43.27;101182.16;5071578;28;20522;-50
2023/03/02 03:31:26;;;;;;;4.25;2.85;;;;;;;16.77;43.54;101180.22;5072859;28;20052;-49
2023/03/02 03:33:55;;;;;;;4.18;3.08;;;;;;;16.77;43.50;101185.59;5071909;28;20056;-48
2023/03/02 03:36:23;;;;;;;6.18;3.15;;;;;;;16.78;43.18;101187.28;5072072;28;20056;-48
2023/03/02 03:38:50;;;;;;;3.90;2.58;;;;;;;16.80;43.49;101189.84;5073466;28;20048;-51
2023/03/02 03:41:17;;;;;;;4.35;2.42;;;;;;;16.80;43.25;101190.69;5073118;28;20487;-48
2023/03/02 03:43:45;;;;;;;5.00;2.78;;;;;;;16.82;43.36;101189.75;5072429;28;20521;-52
2023/03/02 03:46:12;;;;;;;4.03;2.78;;;;;;;16.82;43.41;101187.09;5072054;28;20422;-50
2023/03/02 03:48:41;;;;;;;3.58;2.45;;;;;;;16.83;43.25;101181.63;5073182;28;20052;-49
2023/03/02 03:51:09;;;;;;;4.22;2.92;;;;;;;16.84;43.43;101185.13;5071841;28;20052;-49
2023/03/02 03:53:36;;;;;;;3.60;2.83;;;;;;;16.84;43.35;101180.66;5071498;28;20383;-51
2023/03/02 03:56:06;;;;;;;4.20;2.83;;;;;;;16.85;43.49;101182.34;5071861;28;20406;-51
2023/03/02 03:58:33;;;;;;;4.70;2.63;;;;;;;16.87;43.62;101179.59;5055277;28;20064;-50
2023/03/02 04:01:01;;;;;;;3.22;2.60;;;;;;;16.88;43.21;101186.63;5071395;28;20052;-50
2023/03/02 04:03:28;;;;;;;4.28;2.55;;;;;;;16.88;43.37;101183.97;5071713;28;20056;-51
2023/03/02 04:05:55;;;;;;;3.25;2.47;;;;;;;16.89;43.37;101181.16;5072803;28;20040;-49
2023/03/02 04:08:23;;;;;;;3.03;2.40;;;;;;;16.90;43.48;101190.94;5071736;28;20053;-48
2023/03/02 04:10:51;;;;;;;3.50;2.70;;;;;;;16.89;43.19;101181.16;5076848;28;20044;-48
2023/03/02 04:13:19;;;;;;;3.60;2.40;;;;;;;16.91;43.59;101186.44;5075055;28;20052;-50
2023/03/02 04:15:47;;;;;;;3.63;2.80;;;;;;;16.92;43.23;101188.13;5075350;28;20398;-53
2023/03/02 04:18:14;;;;;;;4.30;2.92;;;;;;;16.92;43.43;101188.13;5075981;28;20055;-49
2023/03/02 04:20:41;;;;;;;3.28;2.70;;;;;;;16.92;43.45;101191.66;5076144;28;20047;-49
2023/03/02 04:23:09;;;;;;;3.35;2.67;;;;;;;16.94;43.29;101194.25;5075023;28;20048;-50
2023/03/02 04:25:37;;;;;;;3.10;2.25;;;;;;;16.94;43.29;101194.25;5075060;28;20051;-50
2023/03/02 04:28:11;;;;;;;4.13;2.53;;;;;;;16.95;43.43;101193.28;5076341;28;20394;-53
2023/03/02 04:30:40;;;;;;;3.28;2.45;;;;;;;16.96;43.49;101193.16;5075459;28;20060;-51
2023/03/02 04:33:07;;;;;;;3.40;2.38;;;;;;;16.96;43.45;101198.50;5076288;28;20483;-52
2023/03/02 04:35:35;;;;;;;3.08;2.40;;;;;;;16.97;43.42;101197.53;5075265;28;20060;-52
2023/03/02 04:38:03;;;;;;;3.65;2.47;;;;;;;16.98;43.43;101199.28;5075293;28;20057;-49
2023/03/02 04:40:31;;;;;;;3.40;2.55;;;;;;;16.99;43.37;101197.44;5074457;28;20048;-50
2023/03/02 04:42:58;;;;;;;3.15;2.55;;;;;;;17.00;43.59;101196.47;5075807;28;20470;-51
2023/03/02 04:45:25;;;;;;;3.05;2.50;;;;;;;17.00;43.44;101193.81;5075618;28;20047;-52
2023/03/02 04:47:52;;;;;;;3.05;2.63;;;;;;;17.02;43.48;101194.56;5076046;28;20044;-51
2023/03/02 04:50:20;;;;;;;3.58;2.45;;;;;;;17.02;43.42;101192.75;5076199;28;20040;-51
2023/03/02 04:52:48;;;;;;;3.30;2.50;;;;;;;17.02;43.52;101195.41;5076195;28;20051;-48
2023/03/02 04:55:19;;;;;;;3.00;2.10;;;;;;;17.03;43.55;101185.56;5076067;28;20067;-52
2023/03/02 04:57:48;;;;;;;4.80;2.53;;;;;;;17.03;43.56;101191.78;5076114;28;20048;-53
2023/03/02 05:00:16;;;;;;;4.35;2.67;;;;;;;17.05;43.30;101189.84;5076018;28;20055;-51
2023/03/02 05:02:44;;;;;;;4.30;2.60;;;;;;;17.06;43.44;101180.00;5075737;28;20051;-52
2023/03/02 05:05:19;;;;;;;3.60;2.75;;;;;;;17.06;43.28;101182.69;5076105;28;20048;-50
2023/03/02 05:07:46;;;;;;;2.83;2.13;;;;;;;17.07;43.42;101191.56;5075914;28;20045;-52
2023/03/02 05:10:15;;;;;;;3.35;2.17;;;;;;;17.07;43.56;101192.41;5075899;28;20624;-52
2023/03/02 05:13:01;;;;;;;3.95;2.45;;;;;;;17.08;43.52;101198.63;5075721;28;20410;-52
2023/03/02 05:15:34;;;;;;;3.13;2.60;;;;;;;17.09;43.41;101194.97;5075789;28;20044;-47
2023/03/02 05:18:04;;;;;;;3.55;2.75;;;;;;;17.10;43.58;101202.06;5075529;28;20052;-48
2023/03/02 05:20:32;;;;;;;3.25;2.30;;;;;;;17.11;43.37;101204.59;5075576;28;20055;-48
2023/03/02 05:23:02;;;;;;;3.17;2.30;;;;;;;17.12;43.41;101194.75;5075578;28;20049;-49
2023/03/02 05:25:33;;;;;;;3.58;2.20;;;;;;;17.13;43.40;101196.47;5075440;28;20051;-48
2023/03/02 05:28:01;;;;;;;3.08;2.15;;;;;;;17.14;43.64;101206.22;5075726;28;20056;-49
2023/03/02 05:30:29;;;;;;;3.67;2.75;;;;;;;17.14;43.48;101209.75;5075200;28;20045;-49
2023/03/02 05:32:57;;;;;;;2.85;2.25;;;;;;;17.15;43.48;101199.91;5075124;28;20406;-49
2023/03/02 05:35:24;;;;;;;4.20;2.33;;;;;;;17.15;43.42;101205.25;5075068;28;20040;-54
2023/03/02 05:37:52;;;;;;;3.30;2.60;;;;;;;17.16;43.52;101206.94;5075068;28;20059;-52
2023/03/02 05:40:19;;;;;;;3.92;2.78;;;;;;;17.16;43.22;101201.59;5074888;28;20053;-54
2023/03/02 05:42:50;;;;;;;3.35;2.42;;;;;;;17.18;43.35;101205.03;5075286;28;20049;-50
2023/03/02 05:45:26;;;;;;;2.40;1.90;;;;;;;17.18;43.39;101202.38;5074991;28;20045;-52
2023/03/02 05:47:54;;;;;;;3.97;2.83;;;;;;;17.19;43.67;101204.06;5075016;28;20442;-54
2023/03/02 05:50:21;;;;;;;3.80;2.63;;;;;;;17.19;43.49;101198.72;5075024;28;20049;-54
2023/03/02 05:52:49;;;;;;;3.90;2.42;;;;;;;17.20;43.47;101211.97;5074941;28;20048;-52
2023/03/02 05:55:17;;;;;;;3.35;2.38;;;;;;;17.21;43.29;101215.50;5074964;28;20363;-49
2023/03/02 05:57:45;;;;;;;3.58;2.22;;;;;;;17.21;43.33;101213.69;5074838;28;20052;-49
2023/03/02 06:00:12;;;;;;;3.60;2.20;;;;;;;17.21;43.46;101211.00;5074685;28;20048;-48
2023/03/02 06:02:41;;;;;;;3.10;2.25;;;;;;;17.22;43.53;101218.09;5074653;28;20040;-48
2023/03/02 06:05:11;;;;;;;3.25;2.35;;;;;;;17.22;43.39;101223.44;5074527;28;20356;-51
2023/03/02 06:07:38;;;;;;;4.82;2.40;;;;;;;17.24;43.47;101217.97;5074464;28;20041;-49
2023/03/02 06:10:07;;;;;;;3.50;2.30;;;;;;;17.24;43.48;101226.84;5074384;28;20486;-51
2023/03/02 06:12:35;;;;;;;3.47;2.10;;;;;;;17.25;43.39;101228.56;5074018;28;20052;-50
2023/03/02 06:15:04;;;;;;;2.72;1.75;;;;;;;17.25;43.43;101217.84;5073976;28;20045;-49
2023/03/02 06:17:32;;;;;;;3.13;2.47;;;;;;;17.25;43.41;101223.19;5074013;28;20044;-52
2023/03/02 06:19:59;;;;;;;3.42;2.40;;;;;;;17.27;43.48;101220.44;5074363;28;20055;-49
2023/03/02 06:22:27;;;;;;;3.47;2.35;;;;;;;17.27;43.50;101217.75;5074316;28;20392;-50
2023/03/02 06:24:54;;;;;;;3.35;2.20;;;;;;;17.27;43.38;101215.94;5074147;28;20055;-51
2023/03/02 06:27:21;;;;;;;3.35;2.33;;;;;;;17.29;43.45;101222.00;5074218;28;20051;-54
2023/03/02 06:29:49;;;;;;;2.70;2.05;;;;;;;17.29;43.29;101219.34;5073852;28;20049;-50
2023/03/02 06:32:16;;;;;;;2.90;2.25;;;;;;;17.30;43.40;101221.06;5073258;28;20044;-50
2023/03/02 06:34:43;;;;;;;2.97;2.25;;;;;;;17.30;43.38;101226.44;5073750;28;20047;-50
2023/03/02 06:37:11;;;;;;;3.58;2.28;;;;;;;17.31;43.60;101221.94;5073743;28;20040;-49
2023/03/02 06:39:38;;;;;;;3.63;2.30;;;;;;;17.32;43.51;101223.63;5073863;28;20045;-53
2023/03/02 06:42:05;;;;;;;3.05;2.20;;;;;;;17.32;43.51;101226.31;5073829;28;20049;-55
2023/03/02 06:44:33;;;;;;;4.43;2.13;;;;;;;17.35;43.36;101233.28;5073726;28;20053;-50
2023/03/02 06:47:00;;;;;;;3.75;2.20;;;;;;;17.34;43.46;101228.84;5073835;28;20052;-53
2023/03/02 06:49:27;;;;;;;3.78;2.15;;;;;;;17.36;43.56;101230.47;5073943;28;20051;-49
2023/03/02 06:51:54;;;;;;;2.80;2.08;;;;;;;17.36;43.50;101233.16;5073872;28;20048;-50
2023/03/02 06:54:22;;;;;;;2.40;1.80;;;;;;;17.37;43.63;101237.53;5073829;28;20044;-53
2023/03/02 06:56:50;;;;;;;5.28;2.00;;;;;;;17.37;43.82;101228.66;5073736;28;20059;-52
2023/03/02 06:59:17;;;;;;;3.05;2.08;;;;;;;17.38;43.67;101235.69;5073668;28;20041;-51
2023/03/02 07:01:45;;;;;;;5.07;2.42;;;;;;;17.39;43.87;101238.28;5073733;28;20049;-51
2023/03/02 07:04:13;;;;;;;3.15;2.35;;;;;;;17.41;43.85;101243.53;5073863;28;20052;-52
2023/03/02 07:06:40;;;;;;;3.30;2.20;;;;;;;17.41;43.84;101227.47;5073661;28;20048;-50
2023/03/02 07:09:07;;;;;;;3.97;1.90;;;;;;;17.41;43.80;101230.13;5073710;28;20501;-53
2023/03/02 07:11:35;;;;;;;3.10;2.35;;;;;;;17.43;43.68;101233.59;5073668;28;20498;-51
2023/03/02 07:14:02;;;;;;;5.32;2.60;;;;;;;17.43;43.82;101241.59;5073478;28;20044;-51
2023/03/02 07:16:30;;;;;;;4.07;2.20;;;;;;;17.44;43.69;101244.16;5073631;28;20044;-51
2023/03/02 07:18:57;;;;;;;3.72;2.33;;;;;;;17.46;43.97;101242.25;5073585;28;20471;-50
2023/03/02 07:21:24;;;;;;;3.58;1.83;;;;;;;17.48;44.10;101250.16;5073437;28;20044;-53
2023/03/02 07:23:52;;;;;;;3.75;2.40;;;;;;;17.49;44.03;101249.19;5073430;28;20059;-48
2023/03/02 07:26:19;;;;;;;4.60;2.70;;;;;;;17.49;44.00;101242.00;5073307;28;20505;-49
2023/03/02 07:28:46;;;;;;;6.78;2.75;;;;;;;17.50;43.88;101242.84;5073514;28;20045;-51
2023/03/02 07:31:14;;;;;;;3.95;2.13;;;;;;;17.51;43.96;101249.94;5073572;28;20047;-49
2023/03/02 07:33:41;;;;;;;4.95;2.55;;;;;;;17.50;43.86;101250.88;5073492;28;20478;-50
2023/03/02 07:36:08;;;;;;;6.82;2.95;;;;;;;17.51;43.85;101255.31;5073457;28;20044;-49
2023/03/02 07:38:37;;;;;;;5.85;2.50;;;;;;;17.53;44.04;101253.34;5073191;28;20048;-51
2023/03/02 07:41:08;;;;;;;4.32;2.22;;;;;;;17.54;44.07;101244.34;5073318;28;20378;-51
2023/03/02 07:43:36;;;;;;;4.80;2.35;;;;;;;17.54;44.05;101255.06;5073182;28;20064;-50
2023/03/02 07:46:04;;;;;;;6.50;3.22;;;;;;;17.54;44.22;101255.94;5077260;28;20047;-55
2023/03/02 07:48:32;;;;;;;6.00;3.42;;;;;;;17.55;45.30;101257.66;5077192;28;20425;-53
2023/03/02 07:51:00;;;;;;;7.25;4.65;;;;;;;17.55;44.69;101263.00;5077274;28;20056;-50
2023/03/02 07:53:28;;;;;;;10.45;6.43;;;;;;;17.49;44.06;101266.09;5074178;28;20048;-51
2023/03/02 07:55:55;;;;;;;8.55;7.15;;;;;;;17.44;43.70;101270.94;5056638;28;20041;-50
2023/03/02 07:58:23;;;;;;;9.88;8.27;;;;;;;17.38;43.48;101282.09;5056781;28;20522;-48
2023/03/02 08:00:50;;;;;;;10.07;9.02;;;;;;;17.33;43.47;101273.50;5056734;28;20040;-48
2023/03/02 08:03:18;;;;;;;12.43;8.90;;;;;;;17.28;43.38;101275.66;5056556;28;20052;-52
2023/03/02 08:05:46;;;;;;;10.48;8.98;;;;;;;17.25;43.43;101283.88;5056525;28;20049;-51
2023/03/02 08:08:13;;;;;;;9.85;8.73;;;;;;;17.21;43.31;101282.38;5056325;28;20056;-50
2023/03/02 08:10:40;;;;;;;11.90;9.43;;;;;;;17.18;43.30;101291.50;5056411;28;20049;-51
2023/03/02 08:13:08;;;;;;;11.07;9.43;;;;;;;17.15;43.24;101294.38;5062227;28;20051;-54
2023/03/02 08:15:35;;;;;;;8.82;7.40;;;;;;;17.15;43.41;101293.53;5076166;28;20048;-48
2023/03/02 08:18:02;;;;;;;7.53;6.53;;;;;;;17.16;43.88;101288.06;5076046;28;20497;-50
2023/03/02 08:20:30;;;;;;;9.23;7.43;;;;;;;17.18;43.57;101280.81;5076392;28;20479;-49
2023/03/02 08:22:57;;;;;;;9.93;7.20;;;;;;;17.20;43.71;101289.56;5075766;28;20045;-48
2023/03/02 08:25:24;;;;;;;7.65;6.85;;;;;;;17.22;43.67;101282.31;5074952;28;20044;-54
2023/03/02 08:27:51;;;;;;;7.75;6.15;;;;;;;17.22;43.66;101279.63;5075652;28;20059;-52
2023/03/02 08:30:19;;;;;;;7.45;6.72;;;;;;;17.25;43.76;101284.75;5076013;28;20131;-53
2023/03/02 08:32:46;;;;;;;7.60;6.43;;;;;;;17.26;43.70;101280.28;5075855;28;20052;-52
2023/03/02 08:35:14;;;;;;;8.07;6.47;;;;;;;17.27;43.62;101279.31;5075961;28;20048;-52
2023/03/02 08:37:41;;;;;;;7.10;6.25;;;;;;;17.27;43.38;101274.81;5075552;28;20494;-51
2023/03/02 08:40:09;;;;;;;9.30;8.10;;;;;;;17.27;43.50;101277.47;5075412;28;20055;-51
2023/03/02 08:42:36;;;;;;;10.40;7.57;;;;;;;17.26;43.42;101278.44;5075680;28;20052;-52
2023/03/02 08:45:04;;;;;;;12.40;8.02;;;;;;;17.27;43.44;101272.13;5075892;28;20049;-48
2023/03/02 08:47:32;;;;;;;7.00;6.28;;;;;;;17.27;43.44;101264.09;5075553;28;20052;-48
2023/03/02 08:49:59;;;;;;;6.07;4.65;;;;;;;17.32;43.86;101271.81;5075666;28;20047;-49
2023/03/02 08:52:26;;;;;;;5.90;4.43;;;;;;;17.35;43.76;101271.59;5075736;28;20048;-51
2023/03/02 08:54:53;;;;;;;5.70;4.90;;;;;;;17.39;43.66;101272.22;5074565;28;20052;-52
2023/03/02 08:57:21;;;;;;;5.88;4.13;;;;;;;17.41;43.77;101267.63;5075630;28;20044;-54
2023/03/02 08:59:48;;;;;;;6.28;4.13;;;;;;;17.43;43.59;101263.88;5075340;28;20052;-54
2023/03/02 09:02:15;;;;;;;6.53;4.38;;;;;;;17.45;43.72;101251.22;5075587;28;20048;-51
2023/03/02 09:04:43;;;;;;;4.38;3.85;;;;;;;17.47;43.78;101243.09;5075125;28;20052;-49
2023/03/02 09:07:10;;;;;;;6.05;4.25;;;;;;;17.48;43.61;101251.00;5075396;28;20478;-50
2023/03/02 09:09:37;;;;;;;5.22;4.07;;;;;;;17.48;43.72;101242.97;5075093;28;20060;-51
2023/03/02 09:12:05;;;;;;;4.00;3.53;;;;;;;17.49;43.70;101246.50;5075443;28;20111;-48
2023/03/02 09:14:32;;;;;;;6.30;3.60;;;;;;;17.49;43.71;101236.66;5074847;28;20053;-49
2023/03/02 09:17:00;;;;;;;4.90;3.97;;;;;;;17.51;43.52;101249.94;5075273;28;20037;-54
2023/03/02 09:19:27;;;;;;;6.90;4.22;;;;;;;17.53;43.60;101248.00;5074911;28;20052;-52
2023/03/02 09:21:55;;;;;;;4.38;3.75;;;;;;;17.55;43.35;101246.09;5075087;28;20052;-50
2023/03/02 09:24:22;;;;;;;5.85;3.88;;;;;;;17.57;43.51;101246.81;5074763;28;20063;-50
2023/03/02 09:26:49;;;;;;;6.03;3.88;;;;;;;17.58;43.63;101245.84;5074972;28;20051;-47
2023/03/02 09:29:16;;;;;;;5.03;3.75;;;;;;;17.60;43.54;101248.44;5074785;28;20060;-47
2023/03/02 09:31:44;;;;;;;5.20;4.38;;;;;;;17.60;43.43;101249.28;5074985;28;20114;-50
2023/03/02 09:34:11;;;;;;;6.57;3.55;;;;;;;17.63;43.59;101258.94;5074739;28;20052;-48
2023/03/02 09:36:38;;;;;;;4.90;3.42;;;;;;;17.65;43.46;101265.00;5075096;28;20045;-48
2023/03/02 09:39:11;;;;;;;5.72;4.05;;;;;;;17.65;43.57;101260.50;5074686;28;20048;-49
2023/03/02 09:41:59;;;;;;;4.77;4.20;;;;;;;17.67;43.48;101266.63;5074688;28;20040;-53
2023/03/02 09:44:54;;;;;;;6.72;3.53;;;;;;;17.69;43.54;101261.16;5074984;28;20048;-47
2023/03/02 09:47:36;;;;;;;3.90;2.97;;;;;;;17.70;43.53;101254.81;5074435;28;20041;-48
2023/03/02 09:50:34;;;;;;;5.07;3.93;;;;;;;17.70;43.55;101250.34;5074804;28;20060;-48
2023/03/02 09:53:06;;;;;;;5.93;4.20;;;;;;;17.70;43.72;101253.03;5034490;28;20072;-50
2023/03/02 09:55:35;;;;;;;7.32;5.65;;;;;;;17.72;43.60;101252.91;5034862;28;20053;-52
2023/03/02 09:58:07;;;;;;;5.85;4.35;;;;;;;17.74;43.59;101241.16;5054464;28;20041;-49
2023/03/02 10:00:39;;;;;;;5.68;4.03;;;;;;;17.75;43.61;101236.66;5054578;28;20071;-51
2023/03/02 10:03:28;;;;;;;5.63;3.70;;;;;;;17.76;43.66;101244.56;5034507;28;20053;-49
2023/03/02 10:05:57;;;;;;;5.28;3.45;;;;;;;17.75;43.84;101252.72;5036115;28;20053;-51
2023/03/02 10:08:27;;;;;;;7.50;4.07;;;;;;;17.74;43.42;101257.22;5053623;28;20045;-48
2023/03/02 10:11:43;;;;;;;4.72;3.80;;;;;;;17.76;43.61;101251.75;5053267;28;20064;-51
2023/03/02 10:14:57;;;;;;;5.20;4.22;;;;;;;17.75;43.59;101255.41;5053422;28;20064;-49
2023/03/02 10:17:39;;;;;;;8.65;4.15;;;;;;;17.75;43.63;101247.34;5054068;28;20041;-49
2023/03/02 10:20:18;;;;;;;7.37;4.53;;;;;;;17.76;43.64;101249.91;5054176;28;20060;-49
2023/03/02 10:22:59;;;;;;;5.82;3.92;;;;;;;17.76;43.58;101249.06;5053953;28;20057;-50
2023/03/02 10:25:51;;;;;;;5.28;4.25;;;;;;;17.75;43.58;101236.66;5053863;28;20052;-48
2023/03/02 10:28:21;;;;;;;5.30;4.05;;;;;;;17.76;43.70;101244.56;5053800;28;20041;-49
2023/03/02 10:30:57;;;;;;;4.45;3.53;;;;;;;17.77;43.71;101256.13;5053456;28;20049;-49
2023/03/02 10:33:26;;;;;;;4.15;3.75;;;;;;;17.77;43.76;101251.63;5033673;28;20436;-51
2023/03/02 10:35:53;;;;;;;4.57;3.70;;;;;;;17.78;43.60;101253.34;5033639;28;20053;-51
2023/03/02 10:38:23;;;;;;;4.75;3.95;;;;;;;17.78;43.67;101249.78;5033713;28;20399;-50
2023/03/02 10:41:02;;;;;;;4.75;3.80;;;;;;;17.78;43.59;101252.47;5033920;28;20403;-49
2023/03/02 10:43:35;;;;;;;5.07;3.92;;;;;;;17.80;43.51;101255.91;5033709;28;20050;-49
2023/03/02 10:46:08;;;;;;;6.00;4.45;;;;;;;17.81;43.60;101256.75;5034404;28;20045;-50
2023/03/02 10:48:49;;;;;;;;;;;;;;;17.80;43.73;101261.25;5053918;28;20041;-49
2023/03/02 10:51:36;;;;;;;5.32;3.83;;;;;;;17.82;43.54;101261.13;5053418;28;19943;-50
2023/03/02 10:54:06;;;;;;;5.53;3.90;;;;;;;17.81;43.54;101260.28;5053623;28;20049;-50
2023/03/02 10:56:33;;;;;;;4.75;3.95;;;;;;;17.83;43.48;101261.03;5053920;28;20051;-49
2023/03/02 10:59:28;;;;;;;4.68;3.67;;;;;;;17.84;43.59;101264.56;5053341;28;20411;-49
2023/03/02 11:02:01;;;;;;;6.60;4.38;;;;;;;17.85;44.04;101258.25;5053330;28;20060;-50
2023/03/02 11:04:29;;;;;;;;;;;;;;;17.86;44.11;101260.81;5053648;28;20376;-48
2023/03/02 11:07:13;;;;;;;7.75;4.25;;;;;;;17.88;44.03;101260.72;5053033;28;20371;-50
2023/03/02 11:09:41;;;;;;;6.03;4.22;;;;;;;17.89;44.04;101270.44;5053080;28;20074;-50
2023/03/02 11:12:15;;;;;;;5.47;3.83;;;;;;;17.90;44.00;101261.44;5053268;28;20048;-49
2023/03/02 11:14:42;;;;;;;5.05;3.97;;;;;;;17.90;44.19;101261.44;5053202;28;20419;-53
2023/03/02 11:17:29;;;;;;;5.13;3.90;;;;;;;17.92;44.14;101260.38;5053179;28;20045;-52
2023/03/02 11:19:57;;;;;;;8.23;4.40;;;;;;;17.92;44.36;101256.84;5053018;28;20049;-53
2023/03/02 11:22:46;;;;;;;4.57;3.85;;;;;;;17.93;44.40;101253.19;5053090;28;20496;-50
2023/03/02 11:25:38;;;;;;;4.88;4.00;;;;;;;17.95;44.78;101261.97;5053051;28;20048;-49
2023/03/02 11:28:38;;;;;;;5.20;4.05;;;;;;;17.95;45.07;101251.25;5053006;28;20040;-49
2023/03/02 11:31:15;;;;;;;7.35;4.30;;;;;;;17.97;45.31;101260.03;5052943;28;20045;-49
2023/03/02 11:33:58;;;;;;;6.72;4.78;;;;;;;17.97;45.68;101258.19;5051731;28;20085;-49
2023/03/02 11:36:44;;;;;;;7.13;4.65;;;;;;;17.98;45.88;101262.59;5053050;28;20049;-49
2023/03/02 11:39:22;;;;;;;4.57;3.75;;;;;;;17.99;46.04;101266.16;5052924;28;20045;-50
2023/03/02 11:41:51;;;;;;;5.13;4.00;;;;;;;17.99;45.92;101255.44;5051982;28;20057;-52